Time;durP1;ratioP1;P1;durP2;ratioP2;P2;SDS_P1;SDS_P2;PMS_P1;PMS_P2;Temp;Humidity;BMP_temperature;BMP_pressure;BME280_temperature;BME280_humidity;BME280_pressure;Samples;Min_cycle;Max_cycle;Signal;HPM_P1;HPM_P2
2021/10/10 00:02:19;;;;;;;23.37;16.73;;;;;;;;;;5073185;28;20820;-46
2021/10/10 00:04:45;;;;;;;24.50;16.27;;;;;;;;;;5074688;28;20407;-48
2021/10/10 00:07:11;;;;;;;19.20;15.70;;;;;;;;;;5074567;28;20458;-45
2021/10/10 00:09:37;;;;;;;23.00;15.40;;;;;;;;;;5074643;28;20419;-45
2021/10/10 00:12:03;;;;;;;19.60;14.97;;;;;;;;;;5074419;28;20484;-45
2021/10/10 00:14:29;;;;;;;22.70;15.30;;;;;;;;;;5074594;28;20398;-44
2021/10/10 00:16:55;;;;;;;19.43;15.20;;;;;;;;;;5074454;28;20417;-45
2021/10/10 00:19:21;;;;;;;23.70;15.80;;;;;;;;;;5074363;28;20426;-45
2021/10/10 00:21:47;;;;;;;24.00;16.80;;;;;;;;;;5074300;28;20399;-45
2021/10/10 00:24:13;;;;;;;24.60;15.00;;;;;;;;;;5074413;28;20412;-45
2021/10/10 00:26:39;;;;;;;18.73;15.00;;;;;;;;;;5074232;28;20950;-46
2021/10/10 00:29:05;;;;;;;21.50;15.57;;;;;;;;;;5074264;28;20817;-46
2021/10/10 00:31:31;;;;;;;19.30;14.57;;;;;;;;;;5074237;28;20485;-48
2021/10/10 00:33:57;;;;;;;25.80;17.40;;;;;;;;;;5074032;28;20461;-45
2021/10/10 00:36:23;;;;;;;28.27;19.73;;;;;;;;;;5074200;28;20398;-45
2021/10/10 00:38:49;;;;;;;28.70;18.50;;;;;;;;;;5074222;28;20503;-45
2021/10/10 00:41:15;;;;;;;43.80;28.53;;;;;;;;;;5074176;28;21027;-45
2021/10/10 00:43:41;;;;;;;59.27;37.67;;;;;;;;;;5073841;28;20452;-45
2021/10/10 00:46:07;;;;;;;81.80;52.20;;;;;;;;;;5074064;28;20394;-46
2021/10/10 00:48:33;;;;;;;78.70;51.17;;;;;;;;;;5073712;28;20539;-45
2021/10/10 00:50:59;;;;;;;73.80;45.90;;;;;;;;;;5073958;28;20402;-45
2021/10/10 00:53:26;;;;;;;62.13;39.97;;;;;;;;;;5073677;28;20402;-45
2021/10/10 00:55:55;;;;;;;57.53;33.20;;;;;;;;;;5073795;28;20490;-45
2021/10/10 00:58:21;;;;;;;62.20;37.00;;;;;;;;;;5074016;28;20421;-48
2021/10/10 01:00:47;;;;;;;69.60;39.57;;;;;;;;;;5073349;28;20413;-47
2021/10/10 01:03:14;;;;;;;66.47;35.27;;;;;;;;;;5072981;28;20410;-46
2021/10/10 01:05:40;;;;;;;43.57;25.70;;;;;;;;;;5073119;28;20404;-45
2021/10/10 01:08:06;;;;;;;41.20;21.43;;;;;;;;;;5074826;28;20457;-47
2021/10/10 01:10:32;;;;;;;30.20;18.97;;;;;;;;;;5073526;28;20888;-47
2021/10/10 01:12:58;;;;;;;29.03;15.57;;;;;;;;;;5072312;28;20962;-47
2021/10/10 01:15:24;;;;;;;22.20;15.10;;;;;;;;;;5073302;28;20401;-46
2021/10/10 01:17:50;;;;;;;21.10;12.83;;;;;;;;;;5073259;28;20459;-47
2021/10/10 01:20:19;;;;;;;24.67;15.50;;;;;;;;;;5073408;28;20481;-47
2021/10/10 01:22:45;;;;;;;17.80;13.87;;;;;;;;;;5073139;28;20451;-47
2021/10/10 01:25:11;;;;;;;24.73;13.70;;;;;;;;;;5073280;28;20768;-47
2021/10/10 01:27:38;;;;;;;24.00;14.00;;;;;;;;;;5073089;28;20543;-47
2021/10/10 01:30:04;;;;;;;17.50;12.77;;;;;;;;;;5071780;28;20968;-47
2021/10/10 01:32:30;;;;;;;23.90;14.37;;;;;;;;;;5073038;28;20464;-47
2021/10/10 01:34:56;;;;;;;15.33;12.70;;;;;;;;;;5073071;28;20494;-47
2021/10/10 01:37:22;;;;;;;19.50;12.77;;;;;;;;;;5072978;28;20873;-47
2021/10/10 01:39:48;;;;;;;20.60;12.53;;;;;;;;;;5072817;28;20535;-47
2021/10/10 01:42:14;;;;;;;19.27;13.97;;;;;;;;;;5072677;28;20417;-47
2021/10/10 01:44:40;;;;;;;19.93;13.10;;;;;;;;;;5073061;28;20398;-47
2021/10/10 01:47:06;;;;;;;16.17;12.43;;;;;;;;;;5072702;28;20444;-46
2021/10/10 01:49:32;;;;;;;16.70;12.27;;;;;;;;;;5072665;28;20418;-47
2021/10/10 01:51:58;;;;;;;15.73;12.47;;;;;;;;;;5072483;28;20897;-47
2021/10/10 01:54:25;;;;;;;16.37;12.77;;;;;;;;;;5072684;28;20841;-47
2021/10/10 01:56:51;;;;;;;15.03;11.20;;;;;;;;;;5072547;28;20403;-47
2021/10/10 01:59:17;;;;;;;18.27;13.10;;;;;;;;;;5072438;28;20421;-46
2021/10/10 02:01:43;;;;;;;18.10;12.00;;;;;;;;;;5072445;28;20406;-46
2021/10/10 02:04:09;;;;;;;16.50;12.50;;;;;;;;;;5072391;28;20454;-46
2021/10/10 02:06:35;;;;;;;19.17;13.50;;;;;;;;;;5072309;28;20436;-47
2021/10/10 02:09:01;;;;;;;20.47;13.00;;;;;;;;;;5072343;28;20416;-47
2021/10/10 02:11:27;;;;;;;16.17;12.00;;;;;;;;;;5072331;28;20426;-47
2021/10/10 02:13:53;;;;;;;25.40;13.13;;;;;;;;;;5072079;28;20799;-47
2021/10/10 02:16:18;;;;;;;18.90;12.20;;;;;;;;;;5072213;28;20786;-47
2021/10/10 02:18:45;;;;;;;18.00;12.33;;;;;;;;;;5072268;28;20546;-47
2021/10/10 02:21:11;;;;;;;17.50;12.60;;;;;;;;;;5072211;28;20459;-47
2021/10/10 02:23:37;;;;;;;19.47;13.10;;;;;;;;;;5071925;28;20156;-47
2021/10/10 02:26:03;;;;;;;17.20;12.53;;;;;;;;;;5072029;28;20393;-46
2021/10/10 02:28:29;;;;;;;17.10;12.50;;;;;;;;;;5071808;28;20538;-46
2021/10/10 02:30:55;;;;;;;19.70;12.30;;;;;;;;;;5072083;28;20394;-46
2021/10/10 02:33:21;;;;;;;16.60;12.53;;;;;;;;;;5071802;28;20407;-46
2021/10/10 02:35:47;;;;;;;18.10;12.40;;;;;;;;;;5072138;28;20480;-47
2021/10/10 02:38:13;;;;;;;17.00;12.33;;;;;;;;;;5072022;28;20437;-47
2021/10/10 02:40:39;;;;;;;16.88;12.00;;;;;;;;;;5071884;28;20484;-47
2021/10/10 02:43:05;;;;;;;15.43;11.40;;;;;;;;;;5071682;28;20243;-48
2021/10/10 02:45:31;;;;;;;16.80;11.53;;;;;;;;;;5071925;28;20872;-47
2021/10/10 02:47:57;;;;;;;15.07;11.20;;;;;;;;;;5071669;28;20517;-48
2021/10/10 02:50:23;;;;;;;18.50;12.37;;;;;;;;;;5072262;28;20401;-47
2021/10/10 02:52:49;;;;;;;19.30;12.10;;;;;;;;;;5071653;28;20406;-47
2021/10/10 02:55:15;;;;;;;13.50;11.70;;;;;;;;;;5071741;28;20416;-47
2021/10/10 02:57:41;;;;;;;16.03;10.93;;;;;;;;;;5071574;28;20413;-47
2021/10/10 03:00:08;;;;;;;14.57;10.63;;;;;;;;;;5071977;28;20408;-47
2021/10/10 03:02:33;;;;;;;17.40;12.93;;;;;;;;;;5071520;28;20480;-47
2021/10/10 03:04:59;;;;;;;17.80;12.03;;;;;;;;;;5071843;28;20429;-46
2021/10/10 03:07:25;;;;;;;16.70;11.97;;;;;;;;;;5071541;28;20444;-47
2021/10/10 03:09:51;;;;;;;15.30;10.87;;;;;;;;;;5071557;28;20424;-46
2021/10/10 03:12:17;;;;;;;17.43;12.50;;;;;;;;;;5071563;28;20758;-46
2021/10/10 03:14:43;;;;;;;14.33;10.97;;;;;;;;;;5071706;28;20405;-47
2021/10/10 03:17:09;;;;;;;17.13;11.80;;;;;;;;;;5071595;28;20405;-47
2021/10/10 03:19:35;;;;;;;15.70;11.67;;;;;;;;;;5071530;28;20431;-47
2021/10/10 03:22:01;;;;;;;15.10;11.93;;;;;;;;;;5071460;28;20447;-47
2021/10/10 03:24:27;;;;;;;16.17;11.97;;;;;;;;;;5071496;28;20404;-47
2021/10/10 03:26:53;;;;;;;15.77;11.97;;;;;;;;;;5071337;28;20444;-46
2021/10/10 03:29:19;;;;;;;15.50;9.80;;;;;;;;;;5071635;28;20457;-47
2021/10/10 03:31:46;;;;;;;16.00;11.18;;;;;;;;;;5071420;28;20454;-47
2021/10/10 03:34:12;;;;;;;15.13;12.00;;;;;;;;;;5071488;28;20677;-46
2021/10/10 03:36:38;;;;;;;18.53;11.90;;;;;;;;;;5072618;28;20401;-47
2021/10/10 03:39:05;;;;;;;16.83;12.67;;;;;;;;;;5074965;28;20436;-47
2021/10/10 03:41:31;;;;;;;15.53;11.97;;;;;;;;;;5075264;28;20389;-47
2021/10/10 03:43:57;;;;;;;16.77;12.53;;;;;;;;;;5075034;28;20392;-47
2021/10/10 03:46:23;;;;;;;19.93;12.83;;;;;;;;;;5075060;28;20408;-47
2021/10/10 03:48:49;;;;;;;15.73;11.77;;;;;;;;;;5075038;28;20931;-47
2021/10/10 03:51:15;;;;;;;18.53;12.50;;;;;;;;;;5075079;28;20253;-47
2021/10/10 03:56:12;;;;;;;19.83;13.15;;;;;;;;;;5075256;28;20408;-46
2021/10/10 03:58:39;;;;;;;20.43;13.70;;;;;;;;;;5074773;28;20202;-46
2021/10/10 04:04:09;;;;;;;20.80;13.10;;;;;;;;;;5075041;28;20161;-46
2021/10/10 04:06:35;;;;;;;18.48;13.05;;;;;;;;;;5074484;28;20182;-47
2021/10/10 04:09:01;;;;;;;17.43;12.60;;;;;;;;;;5074678;28;20183;-46
2021/10/10 04:11:27;;;;;;;18.57;12.53;;;;;;;;;;5074794;28;20594;-47
2021/10/10 04:13:53;;;;;;;19.20;13.67;;;;;;;;;;5074478;28;20408;-47
2021/10/10 04:16:19;;;;;;;18.43;12.90;;;;;;;;;;5074582;28;20553;-47
2021/10/10 04:18:44;;;;;;;24.00;12.97;;;;;;;;;;5074550;28;20424;-47
2021/10/10 04:21:10;;;;;;;17.30;13.40;;;;;;;;;;5074379;28;20405;-47
2021/10/10 04:23:36;;;;;;;23.07;14.33;;;;;;;;;;5074294;28;20405;-47
2021/10/10 04:26:02;;;;;;;22.80;13.60;;;;;;;;;;5074402;28;20460;-46
2021/10/10 04:28:28;;;;;;;19.10;13.85;;;;;;;;;;5074145;28;20471;-47
2021/10/10 04:30:54;;;;;;;15.30;12.50;;;;;;;;;;5074373;28;20162;-46
2021/10/10 04:33:20;;;;;;;20.47;14.20;;;;;;;;;;5074135;28;20409;-46
2021/10/10 04:35:48;;;;;;;18.00;13.40;;;;;;;;;;5074143;28;20426;-47
2021/10/10 04:38:15;;;;;;;20.45;14.48;;;;;;;;;;5073918;28;20483;-47
2021/10/10 04:40:41;;;;;;;22.58;15.40;;;;;;;;;;5074433;28;20217;-46
2021/10/10 04:43:07;;;;;;;19.63;14.77;;;;;;;;;;5074049;28;20860;-48
2021/10/10 04:45:33;;;;;;;24.42;14.10;;;;;;;;;;5074047;28;20504;-46
2021/10/10 04:47:59;;;;;;;22.33;14.75;;;;;;;;;;5072549;28;20202;-46
2021/10/10 04:50:25;;;;;;;18.20;12.43;;;;;;;;;;5073937;28;20735;-47
2021/10/10 04:52:51;;;;;;;22.83;14.50;;;;;;;;;;5073755;28;20429;-48
2021/10/10 04:55:17;;;;;;;21.97;13.20;;;;;;;;;;5073987;28;20480;-47
2021/10/10 04:57:43;;;;;;;28.13;12.87;;;;;;;;;;5073717;28;20884;-47
2021/10/10 05:00:10;;;;;;;23.20;14.43;;;;;;;;;;5073785;28;20869;-47
2021/10/10 05:02:36;;;;;;;28.80;15.77;;;;;;;;;;5073498;28;20837;-46
2021/10/10 05:05:02;;;;;;;21.40;13.95;;;;;;;;;;5073672;28;20177;-47
2021/10/10 05:07:29;;;;;;;22.48;13.77;;;;;;;;;;5073561;28;20236;-47
2021/10/10 05:09:55;;;;;;;22.45;12.35;;;;;;;;;;5073546;28;20269;-46
2021/10/10 05:12:21;;;;;;;20.17;12.40;;;;;;;;;;5073353;28;20252;-46
2021/10/10 05:14:47;;;;;;;18.17;12.47;;;;;;;;;;5073497;28;20404;-46
2021/10/10 05:17:13;;;;;;;17.73;11.82;;;;;;;;;;5073369;28;20818;-46
2021/10/10 05:19:39;;;;;;;17.20;11.40;;;;;;;;;;5073238;28;20198;-47
2021/10/10 05:22:05;;;;;;;20.13;11.90;;;;;;;;;;5073142;28;20400;-47
2021/10/10 05:24:32;;;;;;;22.77;13.30;;;;;;;;;;5073343;28;20397;-47
2021/10/10 05:26:59;;;;;;;20.10;11.63;;;;;;;;;;5073236;28;20508;-47
2021/10/10 05:29:25;;;;;;;18.37;11.50;;;;;;;;;;5073107;28;20194;-46
2021/10/10 05:31:51;;;;;;;16.70;11.50;;;;;;;;;;5072900;28;20492;-47
2021/10/10 05:34:17;;;;;;;20.67;12.68;;;;;;;;;;5073109;28;20459;-47
2021/10/10 05:36:43;;;;;;;18.13;11.57;;;;;;;;;;5072958;28;20167;-47
2021/10/10 05:39:09;;;;;;;18.90;11.60;;;;;;;;;;5072839;28;20944;-47
2021/10/10 05:41:35;;;;;;;12.93;10.50;;;;;;;;;;5072927;28;20456;-47
2021/10/10 05:44:01;;;;;;;17.43;11.10;;;;;;;;;;5072741;28;20408;-46
2021/10/10 05:46:27;;;;;;;17.07;11.53;;;;;;;;;;5072612;28;20400;-45
2021/10/10 05:48:53;;;;;;;15.70;10.53;;;;;;;;;;5073466;28;20440;-47
2021/10/10 05:51:19;;;;;;;15.93;11.50;;;;;;;;;;5072745;28;20490;-47
2021/10/10 05:53:45;;;;;;;14.23;10.10;;;;;;;;;;5072521;28;20783;-47
2021/10/10 05:56:12;;;;;;;14.23;9.80;;;;;;;;;;5072983;28;20475;-47
2021/10/10 05:58:43;;;;;;;14.82;11.00;;;;;;;;;;5072761;28;20182;-46
2021/10/10 06:01:09;;;;;;;21.02;11.50;;;;;;;;;;5072448;28;20170;-45
2021/10/10 06:03:37;;;;;;;17.70;11.03;;;;;;;;;;5072305;28;20159;-46
2021/10/10 06:06:03;;;;;;;20.90;14.48;;;;;;;;;;5071773;28;20419;-45
2021/10/10 06:08:29;;;;;;;21.53;15.67;;;;;;;;;;5071761;28;20199;-45
2021/10/10 06:10:55;;;;;;;23.80;16.43;;;;;;;;;;5071745;28;20812;-46
2021/10/10 06:13:21;;;;;;;21.40;13.83;;;;;;;;;;5071726;28;20454;-47
2021/10/10 06:15:49;;;;;;;20.63;14.27;;;;;;;;;;5071512;28;20901;-46
2021/10/10 06:18:15;;;;;;;21.90;15.00;;;;;;;;;;5071614;28;20448;-46
2021/10/10 06:20:41;;;;;;;18.40;13.10;;;;;;;;;;5071603;28;20437;-46
2021/10/10 06:23:07;;;;;;;20.13;14.30;;;;;;;;;;5071531;28;20397;-45
2021/10/10 06:25:33;;;;;;;28.23;13.77;;;;;;;;;;5071797;28;20757;-46
2021/10/10 06:27:59;;;;;;;26.60;15.30;;;;;;;;;;5071244;28;20468;-46
2021/10/10 06:30:25;;;;;;;18.40;12.47;;;;;;;;;;5071608;28;20887;-46
2021/10/10 06:32:51;;;;;;;18.00;10.80;;;;;;;;;;5063806;28;20480;-46
2021/10/10 06:35:17;;;;;;;21.03;12.23;;;;;;;;;;5056719;28;20499;-46
2021/10/10 06:37:43;;;;;;;18.90;11.90;;;;;;;;;;5050918;28;20395;-47
2021/10/10 06:40:09;;;;;;;19.47;13.50;;;;;;;;;;5051915;28;20410;-47
2021/10/10 06:42:35;;;;;;;16.63;11.03;;;;;;;;;;5051250;28;20871;-46
2021/10/10 06:45:01;;;;;;;16.50;10.97;;;;;;;;;;5051445;28;20407;-46
2021/10/10 06:47:27;;;;;;;21.47;11.63;;;;;;;;;;5050196;28;21045;-46
2021/10/10 06:49:53;;;;;;;20.67;12.73;;;;;;;;;;5051885;28;20489;-46
2021/10/10 06:52:19;;;;;;;24.50;13.40;;;;;;;;;;5051379;28;20395;-46
2021/10/10 06:54:45;;;;;;;19.67;11.80;;;;;;;;;;5051914;28;20394;-46
2021/10/10 06:57:11;;;;;;;24.63;12.47;;;;;;;;;;5051785;28;20808;-46
2021/10/10 06:59:37;;;;;;;21.63;12.90;;;;;;;;;;5051619;28;20937;-46
2021/10/10 07:02:03;;;;;;;18.97;12.87;;;;;;;;;;5051573;28;20406;-46
2021/10/10 07:04:29;;;;;;;19.47;11.97;;;;;;;;;;5051699;28;20404;-46
2021/10/10 07:06:55;;;;;;;22.47;12.67;;;;;;;;;;5051540;28;20502;-46
2021/10/10 07:09:21;;;;;;;22.30;11.80;;;;;;;;;;5051618;28;20419;-46
2021/10/10 07:11:47;;;;;;;24.60;13.73;;;;;;;;;;5053063;28;20438;-46
2021/10/10 07:14:13;;;;;;;19.67;11.43;;;;;;;;;;5055734;28;20398;-46
2021/10/10 07:16:42;;;;;;;26.27;11.97;;;;;;;;;;5055698;28;20397;-47
2021/10/10 07:19:08;;;;;;;18.03;12.23;;;;;;;;;;5055547;28;20418;-46
2021/10/10 07:24:55;;;;;;;15.80;11.20;;;;;;;;;;5055566;28;20914;-47
2021/10/10 07:26:52;;;;;;;29.00;11.90;;;;;;;;;;5061670;28;20463;-46
2021/10/10 07:29:18;;;;;;;21.97;12.60;;;;;;;;;;5055641;28;20425;-46
2021/10/10 07:31:44;;;;;;;16.07;12.20;;;;;;;;;;5055304;28;20411;-47
2021/10/10 07:34:10;;;;;;;28.73;12.20;;;;;;;;;;5055296;28;20416;-46
2021/10/10 07:36:36;;;;;;;18.80;11.20;;;;;;;;;;5055331;28;20439;-46
2021/10/10 07:39:02;;;;;;;20.40;12.67;;;;;;;;;;5055177;28;21071;-46
2021/10/10 07:41:28;;;;;;;19.17;12.33;;;;;;;;;;5055258;28;20745;-46
2021/10/10 07:43:54;;;;;;;17.33;11.30;;;;;;;;;;5055067;28;20423;-46
2021/10/10 07:46:21;;;;;;;18.97;11.60;;;;;;;;;;5055142;28;20496;-47
2021/10/10 07:48:47;;;;;;;18.40;11.73;;;;;;;;;;5054944;28;20476;-46
2021/10/10 07:51:13;;;;;;;16.87;9.97;;;;;;;;;;5055129;28;20405;-46
2021/10/10 07:53:39;;;;;;;16.10;10.43;;;;;;;;;;5055257;28;20793;-47
2021/10/10 07:56:05;;;;;;;17.93;10.57;;;;;;;;;;5055026;28;20908;-47
2021/10/10 07:58:31;;;;;;;21.67;10.10;;;;;;;;;;5055043;28;20452;-46
2021/10/10 08:00:58;;;;;;;14.80;9.60;;;;;;;;;;5054973;28;20412;-46
2021/10/10 08:03:24;;;;;;;13.40;8.83;;;;;;;;;;5054649;28;20410;-46
2021/10/10 08:05:50;;;;;;;14.40;10.27;;;;;;;;;;5054852;28;20547;-47
2021/10/10 08:08:16;;;;;;;15.10;10.20;;;;;;;;;;5054459;28;20514;-48
2021/10/10 08:10:42;;;;;;;14.27;10.43;;;;;;;;;;5054761;28;20397;-47
2021/10/10 08:13:08;;;;;;;22.40;9.90;;;;;;;;;;5054446;28;20448;-46
2021/10/10 08:15:34;;;;;;;12.17;9.60;;;;;;;;;;5054690;28;20406;-46
2021/10/10 08:18:00;;;;;;;14.97;9.73;;;;;;;;;;5054361;28;20421;-46
2021/10/10 08:20:26;;;;;;;13.23;10.20;;;;;;;;;;5054603;28;20381;-47
2021/10/10 08:22:53;;;;;;;11.23;8.80;;;;;;;;;;5053847;28;20406;-46
2021/10/10 08:25:19;;;;;;;11.53;8.60;;;;;;;;;;5054542;28;20645;-46
2021/10/10 08:27:46;;;;;;;15.57;9.70;;;;;;;;;;5054205;28;20451;-46
2021/10/10 08:30:13;;;;;;;11.13;8.97;;;;;;;;;;5054386;28;20838;-46
2021/10/10 08:32:40;;;;;;;13.50;9.30;;;;;;;;;;5054114;28;20400;-46
2021/10/10 08:35:07;;;;;;;12.00;9.00;;;;;;;;;;5054257;28;20406;-47
2021/10/10 08:37:33;;;;;;;13.00;8.80;;;;;;;;;;5053992;28;20402;-47
2021/10/10 08:39:59;;;;;;;13.67;9.60;;;;;;;;;;5054196;28;20413;-46
2021/10/10 08:42:32;;;;;;;16.43;9.50;;;;;;;;;;5054001;28;20544;-47
2021/10/10 08:45:05;;;;;;;12.77;8.93;;;;;;;;;;5054109;28;20397;-46
2021/10/10 08:47:31;;;;;;;12.23;9.23;;;;;;;;;;5053972;28;21027;-46
2021/10/10 08:49:58;;;;;;;12.40;7.80;;;;;;;;;;5053894;28;20400;-46
2021/10/10 08:52:24;;;;;;;13.40;7.90;;;;;;;;;;5053722;28;20816;-47
2021/10/10 08:54:50;;;;;;;15.10;9.23;;;;;;;;;;5054054;28;20403;-46
2021/10/10 08:57:17;;;;;;;12.67;7.40;;;;;;;;;;5053825;28;20401;-47
2021/10/10 08:59:47;;;;;;;9.30;7.47;;;;;;;;;;5053779;28;20426;-47
2021/10/10 09:02:30;;;;;;;7.97;7.00;;;;;;;;;;5053600;28;20379;-47
2021/10/10 09:04:56;;;;;;;12.80;7.70;;;;;;;;;;5053709;28;20455;-47
2021/10/10 09:07:22;;;;;;;12.10;8.03;;;;;;;;;;5053586;28;21037;-48
2021/10/10 09:09:48;;;;;;;11.13;8.43;;;;;;;;;;5053496;28;20481;-48
2021/10/10 09:12:14;;;;;;;9.60;8.20;;;;;;;;;;5053365;28;20407;-49
2021/10/10 09:14:41;;;;;;;11.60;7.37;;;;;;;;;;5053520;28;20782;-47
2021/10/10 09:17:08;;;;;;;7.87;6.93;;;;;;;;;;5053337;28;20405;-48
2021/10/10 09:19:34;;;;;;;9.33;7.30;;;;;;;;;;5053378;28;20981;-47
2021/10/10 09:22:02;;;;;;;12.73;7.80;;;;;;;;;;5053189;28;20405;-48
2021/10/10 09:24:28;;;;;;;11.47;7.30;;;;;;;;;;5053507;28;20404;-47
2021/10/10 09:26:54;;;;;;;8.73;6.67;;;;;;;;;;5053155;28;20405;-48
2021/10/10 09:29:32;;;;;;;12.23;7.10;;;;;;;;;;5053132;28;20428;-48
2021/10/10 09:32:09;;;;;;;10.23;6.60;;;;;;;;;;5052959;28;20407;-48
2021/10/10 09:34:36;;;;;;;11.77;9.47;;;;;;;;;;5052453;28;20507;-48
2021/10/10 09:37:19;;;;;;;12.93;8.67;;;;;;;;;;5053346;28;20431;-49
2021/10/10 09:39:47;;;;;;;9.07;7.13;;;;;;;;;;5052905;28;20531;-48
2021/10/10 09:42:30;;;;;;;11.83;8.10;;;;;;;;;;5052764;28;20900;-47
2021/10/10 09:44:57;;;;;;;11.33;8.60;;;;;;;;;;5052853;28;20398;-48
2021/10/10 09:47:22;;;;;;;10.53;8.30;;;;;;;;;;5052775;28;20550;-49
2021/10/10 09:49:48;;;;;;;11.40;8.70;;;;;;;;;;5052820;28;20877;-49
2021/10/10 09:52:15;;;;;;;13.93;8.13;;;;;;;;;;5052613;28;20397;-48
2021/10/10 09:54:47;;;;;;;11.47;8.57;;;;;;;;;;5052649;28;20404;-48
2021/10/10 09:57:13;;;;;;;10.87;7.37;;;;;;;;;;5058632;28;20957;-49
2021/10/10 09:59:39;;;;;;;10.63;7.57;;;;;;;;;;5072430;28;20427;-50
2021/10/10 10:02:05;;;;;;;12.20;7.90;;;;;;;;;;5072166;28;20407;-48
2021/10/10 10:04:42;;;;;;;11.97;8.17;;;;;;;;;;5072404;28;20397;-48
2021/10/10 10:07:09;;;;;;;10.70;6.83;;;;;;;;;;5072075;28;20973;-50
2021/10/10 10:09:35;;;;;;;9.77;8.63;;;;;;;;;;5072208;28;20492;-48
2021/10/10 10:12:01;;;;;;;10.90;8.23;;;;;;;;;;5072003;28;20491;-48
2021/10/10 10:14:27;;;;;;;10.23;8.30;;;;;;;;;;5072172;28;20930;-48
2021/10/10 10:16:53;;;;;;;10.53;7.47;;;;;;;;;;5072115;28;20407;-49
2021/10/10 10:19:21;;;;;;;7.60;6.90;;;;;;;;;;5072073;28;20415;-48
2021/10/10 10:21:48;;;;;;;10.10;7.30;;;;;;;;;;5071855;28;20411;-48
2021/10/10 10:24:14;;;;;;;8.97;7.80;;;;;;;;;;5072088;28;20877;-48
2021/10/10 10:26:41;;;;;;;7.60;6.83;;;;;;;;;;5071917;28;20427;-48
2021/10/10 10:29:12;;;;;;;11.53;7.23;;;;;;;;;;5071936;28;20565;-48
2021/10/10 10:31:38;;;;;;;9.40;6.70;;;;;;;;;;5072044;28;20400;-50
2021/10/10 10:34:19;;;;;;;8.77;7.20;;;;;;;;;;5071753;28;20395;-48
2021/10/10 10:37:07;;;;;;;12.90;7.27;;;;;;;;;;5071990;28;20777;-48
2021/10/10 10:39:38;;;;;;;9.17;7.10;;;;;;;;;;5072210;28;20443;-48
2021/10/10 10:42:05;;;;;;;8.90;6.90;;;;;;;;;;5071985;28;20793;-48
2021/10/10 10:44:45;;;;;;;12.23;7.60;;;;;;;;;;5071715;28;20403;-48
2021/10/10 10:47:14;;;;;;;8.40;6.90;;;;;;;;;;5071921;28;21064;-48
2021/10/10 10:49:56;;;;;;;11.57;7.07;;;;;;;;;;5071742;28;20412;-48
2021/10/10 10:52:26;;;;;;;7.53;6.90;;;;;;;;;;5071703;28;20822;-48
2021/10/10 10:54:53;;;;;;;8.20;6.40;;;;;;;;;;5071721;28;20407;-48
2021/10/10 10:57:33;;;;;;;9.57;7.30;;;;;;;;;;5071714;28;20413;-49
2021/10/10 11:00:04;;;;;;;8.77;7.10;;;;;;;;;;5071749;28;20460;-48
2021/10/10 11:02:49;;;;;;;8.53;6.40;;;;;;;;;;5071654;28;20767;-48
2021/10/10 11:05:33;;;;;;;10.20;7.27;;;;;;;;;;5071670;28;20457;-48
2021/10/10 11:08:00;;;;;;;8.73;6.57;;;;;;;;;;5066827;28;20460;-48
2021/10/10 11:10:26;;;;;;;7.50;6.70;;;;;;;;;;5063276;28;20904;-47
2021/10/10 11:12:55;;;;;;;7.53;6.40;;;;;;;;;;5071319;28;20400;-48
2021/10/10 11:15:21;;;;;;;7.43;6.70;;;;;;;;;;5072038;28;20401;-47
2021/10/10 11:17:57;;;;;;;6.70;6.00;;;;;;;;;;5071302;28;20408;-47
2021/10/10 11:20:23;;;;;;;7.07;6.37;;;;;;;;;;5071584;28;20433;-47
2021/10/10 11:22:50;;;;;;;10.53;7.23;;;;;;;;;;5071405;28;20401;-47
2021/10/10 11:25:16;;;;;;;8.20;5.80;;;;;;;;;;5071523;28;20404;-47
2021/10/10 11:27:42;;;;;;;7.63;6.83;;;;;;;;;;5071834;28;20447;-48
2021/10/10 11:30:08;;;;;;;7.17;6.47;;;;;;;;;;5071412;28;20823;-48
2021/10/10 11:32:49;;;;;;;10.00;6.23;;;;;;;;;;5071748;28;20400;-49
2021/10/10 11:35:25;;;;;;;12.50;6.70;;;;;;;;;;5071444;28;20483;-49
2021/10/10 11:38:09;;;;;;;14.33;7.50;;;;;;;;;;5071130;28;20403;-49
2021/10/10 11:40:35;;;;;;;7.07;5.73;;;;;;;;;;5071421;28;20396;-49
2021/10/10 11:43:01;;;;;;;6.80;6.10;;;;;;;;;;5070998;28;20879;-48
2021/10/10 11:45:28;;;;;;;7.47;5.97;;;;;;;;;;5071829;28;20404;-49
2021/10/10 11:47:54;;;;;;;7.83;5.87;;;;;;;;;;5071165;28;21030;-49
2021/10/10 11:50:21;;;;;;;8.20;5.90;;;;;;;;;;5072137;28;20407;-49
2021/10/10 11:52:59;;;;;;;12.20;6.10;;;;;;;;;;5071087;28;20396;-48
2021/10/10 11:55:47;;;;;;;6.63;5.70;;;;;;;;;;5071639;28;20412;-48
2021/10/10 11:58:12;;;;;;;6.27;5.33;;;;;;;;;;5073126;28;20437;-48
2021/10/10 12:00:39;;;;;;;10.17;6.10;;;;;;;;;;5074815;28;20400;-48
2021/10/10 12:03:10;;;;;;;6.10;5.17;;;;;;;;;;5074882;28;20408;-48
2021/10/10 12:05:40;;;;;;;9.13;5.50;;;;;;;;;;5074604;28;20428;-48
2021/10/10 12:08:17;;;;;;;8.30;6.30;;;;;;;;;;5074500;28;20967;-48
2021/10/10 12:10:45;;;;;;;6.70;6.03;;;;;;;;;;5074696;28;20396;-48
2021/10/10 12:13:11;;;;;;;6.73;5.70;;;;;;;;;;5074451;28;20408;-49
2021/10/10 12:15:37;;;;;;;5.70;5.10;;;;;;;;;;5074707;28;20401;-50
2021/10/10 12:18:10;;;;;;;7.17;6.10;;;;;;;;;;5074513;28;20481;-49
2021/10/10 12:20:36;;;;;;;6.47;5.23;;;;;;;;;;5074385;28;20894;-49
2021/10/10 12:23:09;;;;;;;7.93;6.40;;;;;;;;;;5074336;28;20451;-49
2021/10/10 12:25:37;;;;;;;7.47;6.10;;;;;;;;;;5074398;28;20400;-50
2021/10/10 12:28:07;;;;;;;7.80;6.53;;;;;;;;;;5074189;28;20456;-49
2021/10/10 12:30:36;;;;;;;6.90;4.97;;;;;;;;;;5074415;28;20504;-49
2021/10/10 12:33:20;;;;;;;5.53;4.97;;;;;;;;;;5074053;28;20480;-49
2021/10/10 12:35:56;;;;;;;6.90;4.83;;;;;;;;;;5074361;28;20439;-50
2021/10/10 12:38:34;;;;;;;6.70;5.10;;;;;;;;;;5074122;28;21008;-48
2021/10/10 12:41:01;;;;;;;8.03;5.50;;;;;;;;;;5074091;28;20575;-48
2021/10/10 12:43:33;;;;;;;8.07;5.07;;;;;;;;;;5073902;28;20397;-49
2021/10/10 12:46:01;;;;;;;7.23;5.13;;;;;;;;;;5073908;28;20405;-49
2021/10/10 12:48:27;;;;;;;8.00;4.40;;;;;;;;;;5073949;28;20508;-49
2021/10/10 12:50:54;;;;;;;6.97;5.00;;;;;;;;;;5072906;28;20820;-49
2021/10/10 12:53:27;;;;;;;7.40;4.97;;;;;;;;;;5073659;28;20397;-49
2021/10/10 12:56:12;;;;;;;6.10;4.80;;;;;;;;;;5073775;28;20389;-48
2021/10/10 12:58:49;;;;;;;5.77;5.13;;;;;;;;;;5073796;28;20829;-49
2021/10/10 13:01:15;;;;;;;7.63;5.07;;;;;;;;;;5073859;28;20392;-49
2021/10/10 13:03:41;;;;;;;5.40;4.90;;;;;;;;;;5073581;28;20401;-49
2021/10/10 13:06:07;;;;;;;6.20;5.53;;;;;;;;;;5073661;28;20408;-49
2021/10/10 13:08:44;;;;;;;5.17;4.67;;;;;;;;;;5072728;28;20475;-50
2021/10/10 13:11:10;;;;;;;6.53;5.93;;;;;;;;;;5073644;28;20410;-49
2021/10/10 13:13:36;;;;;;;11.17;6.13;;;;;;;;;;5073455;28;20396;-49
2021/10/10 13:16:02;;;;;;;7.70;4.77;;;;;;;;;;5073519;28;20405;-49
2021/10/10 13:18:28;;;;;;;5.40;4.60;;;;;;;;;;5073321;28;20473;-49
2021/10/10 13:20:54;;;;;;;6.70;5.27;;;;;;;;;;5073129;28;20406;-49
2021/10/10 13:23:20;;;;;;;10.00;5.53;;;;;;;;;;5073062;28;20404;-49
2021/10/10 13:25:46;;;;;;;8.03;5.77;;;;;;;;;;5073194;28;20938;-49
2021/10/10 13:28:12;;;;;;;7.63;5.00;;;;;;;;;;5071893;28;20455;-49
2021/10/10 13:30:38;;;;;;;5.77;5.17;;;;;;;;;;5072870;28;20750;-49
2021/10/10 13:33:04;;;;;;;7.27;5.20;;;;;;;;;;5072956;28;20388;-49
2021/10/10 13:35:30;;;;;;;16.13;5.43;;;;;;;;;;5072976;28;20895;-49
2021/10/10 13:37:57;;;;;;;5.60;5.00;;;;;;;;;;5072633;28;20444;-49
2021/10/10 13:40:23;;;;;;;7.70;4.23;;;;;;;;;;5072389;28;20396;-49
2021/10/10 13:42:49;;;;;;;5.70;4.80;;;;;;;;;;5071643;28;20403;-50
2021/10/10 13:45:15;;;;;;;9.47;5.17;;;;;;;;;;5072869;28;20482;-49
2021/10/10 13:47:41;;;;;;;6.33;5.60;;;;;;;;;;5072752;28;20452;-49
2021/10/10 13:50:09;;;;;;;6.20;5.20;;;;;;;;;;5073052;28;20392;-49
2021/10/10 13:52:37;;;;;;;5.97;4.67;;;;;;;;;;5072529;28;20397;-49
2021/10/10 13:55:03;;;;;;;5.53;5.00;;;;;;;;;;5072735;28;20392;-48
2021/10/10 13:57:29;;;;;;;5.60;4.97;;;;;;;;;;5072636;28;20404;-49
2021/10/10 13:59:55;;;;;;;7.33;5.07;;;;;;;;;;5072569;28;20423;-49
2021/10/10 14:02:21;;;;;;;6.87;5.60;;;;;;;;;;5072279;28;20392;-49
2021/10/10 14:04:46;;;;;;;8.50;4.53;;;;;;;;;;5072548;28;20454;-49
2021/10/10 14:07:12;;;;;;;9.17;4.93;;;;;;;;;;5072333;28;20487;-49
2021/10/10 14:09:38;;;;;;;7.90;5.50;;;;;;;;;;5072425;28;20424;-49
2021/10/10 14:12:04;;;;;;;8.40;5.73;;;;;;;;;;5072238;28;20404;-49
2021/10/10 14:14:30;;;;;;;5.80;5.30;;;;;;;;;;5072365;28;20876;-49
2021/10/10 14:16:56;;;;;;;6.93;5.60;;;;;;;;;;5072184;28;20523;-48
2021/10/10 14:19:22;;;;;;;5.53;5.07;;;;;;;;;;5072253;28;20463;-48
2021/10/10 14:21:48;;;;;;;7.57;6.03;;;;;;;;;;5071758;28;20453;-49
2021/10/10 14:24:14;;;;;;;7.00;5.73;;;;;;;;;;5072192;28;20413;-49
2021/10/10 14:26:40;;;;;;;6.67;5.87;;;;;;;;;;5072205;28;20403;-49
2021/10/10 14:29:06;;;;;;;6.30;5.80;;;;;;;;;;5072062;28;20510;-49
2021/10/10 14:31:32;;;;;;;9.67;6.30;;;;;;;;;;5072038;28;20416;-49
2021/10/10 14:33:58;;;;;;;8.80;7.80;;;;;;;;;;5071957;28;20811;-49
2021/10/10 14:36:24;;;;;;;7.40;6.30;;;;;;;;;;5072016;28;20428;-48